Impacts METAR Board INFO
IDs:

KSTL - St Louis/Lambert Int, MO, US

Updated at: 0903 UTC 18 Dec 2017
Potential Impact None Slight Moderate High
Time17/21Z 17/22Z 17/23Z 18/00Z 18/01Z 18/02Z 18/03Z 18/04Z 18/05Z 18/06Z 18/07Z 18/08Z 18/09Z
VIS10 10 10 10 10 10 10 10 10 10 10 10 10
CIG49 35 40 28 31 28 17 16 24 25 25 20 22
CoverBKNOVCOVCOVCOVCOVCOVCOVCOVCOVCOVCOVCOVC
FltCatVFRVFRVFRMVFRVFRMVFRMVFRMVFRMVFRMVFRMVFRMVFRMVFR
WX-------------DZ---DZ-----DZ--
WDir180210230230220230230270240240250250260
WSpd7 8 8 13 11 8 6 5 7 9 11 8 5
WGst-- -- -- -- -- -- -- -- -- -- -- -- --
Raw hourly METARs
KSTL 172051Z 18007KT 10SM BKN049 BKN060 13/04 A2999 RMK AO2 SLP158 T01280044 56023
KSTL 172151Z 21008KT 10SM BKN035 OVC046 12/04 A3001 RMK AO2 SLP164 T01220044
KSTL 172251Z 23008KT 10SM FEW033 OVC040 12/06 A3002 RMK AO2 SLP166 T01170056
KSTL 172358Z 23013KT 10SM BKN028 OVC034 10/06 A3005 RMK AO2 T01000056
KSTL 180051Z 22011KT 10SM OVC031 10/06 A3005 RMK AO2 SLP179 T01000061
KSTL 180151Z 23008KT 10SM OVC028 09/06 A3007 RMK AO2 SLP184 T00940061
KSTL 180251Z 23006KT 10SM -DZ OVC017 09/07 A3007 RMK AO2 DZB41 SLP186 P0000 60000 T00890067 53006
KSTL 180351Z 27005KT 10SM BKN016 OVC023 09/07 A3006 RMK AO2 DZE51 SLP183 P0000 T00890072
KSTL 180451Z 24007KT 10SM -DZ SCT015 OVC024 08/07 A3007 RMK AO2 DZB38 SLP185 P0000 T00830072
KSTL 180551Z 24009KT 10SM FEW018 OVC025 08/07 A3006 RMK AO2 DZE50 SLP182 P0000 60000 T00830067 10100 20083 401280056 56002
KSTL 180651Z 25011KT 10SM FEW018 OVC025 09/06 A3006 RMK AO2 SLP182 T00890061
KSTL 180751Z 25008KT 10SM -DZ OVC020 09/06 A3007 RMK AO2 DZB48 SLP184 P0000 T00890056
KSTL 180851Z 26005KT 10SM OVC022 08/06 A3006 RMK AO2 DZE51 SLP180 P0000 60000 T00830056 58001